sensor_id;sensor_type;location;lat;lon;timestamp;temperature;humidity
33988;DHT22;37428;53.580;-1.666;2022-07-23T00:00:00;15.50;80.50
33988;DHT22;37428;53.580;-1.666;2022-07-23T00:03:02;15.40;80.90
33988;DHT22;37428;53.580;-1.666;2022-07-23T00:06:13;15.50;80.30
33988;DHT22;37428;53.580;-1.666;2022-07-23T00:09:15;15.50;80.30
33988;DHT22;37428;53.580;-1.666;2022-07-23T00:12:18;15.50;79.80
33988;DHT22;37428;53.580;-1.666;2022-07-23T00:15:20;15.30;80.40
33988;DHT22;37428;53.580;-1.666;2022-07-23T00:18:22;15.30;80.90
33988;DHT22;37428;53.580;-1.666;2022-07-23T00:21:27;15.30;81.30
33988;DHT22;37428;53.580;-1.666;2022-07-23T00:24:43;15.20;81.20
33988;DHT22;37428;53.580;-1.666;2022-07-23T00:27:47;15.20;82.50
33988;DHT22;37428;53.580;-1.666;2022-07-23T00:30:49;15.30;82.50
33988;DHT22;37428;53.580;-1.666;2022-07-23T00:34:10;15.30;81.80
33988;DHT22;37428;53.580;-1.666;2022-07-23T00:37:17;15.40;82.20
33988;DHT22;37428;53.580;-1.666;2022-07-23T00:40:25;15.40;82.10
33988;DHT22;37428;53.580;-1.666;2022-07-23T00:43:35;15.60;81.70
33988;DHT22;37428;53.580;-1.666;2022-07-23T00:46:37;15.60;81.60
33988;DHT22;37428;53.580;-1.666;2022-07-23T00:49:39;15.70;81.80
33988;DHT22;37428;53.580;-1.666;2022-07-23T00:52:44;15.80;81.10
33988;DHT22;37428;53.580;-1.666;2022-07-23T00:55:49;15.70;80.10
33988;DHT22;37428;53.580;-1.666;2022-07-23T00:58:53;15.60;80.60
33988;DHT22;37428;53.580;-1.666;2022-07-23T01:02:03;15.50;81.00
33988;DHT22;37428;53.580;-1.666;2022-07-23T01:05:12;15.40;82.00
33988;DHT22;37428;53.580;-1.666;2022-07-23T01:08:22;15.50;81.20
33988;DHT22;37428;53.580;-1.666;2022-07-23T01:11:26;15.50;80.20
33988;DHT22;37428;53.580;-1.666;2022-07-23T01:14:38;15.50;79.50
33988;DHT22;37428;53.580;-1.666;2022-07-23T01:17:49;15.50;79.90
33988;DHT22;37428;53.580;-1.666;2022-07-23T01:20:56;15.50;79.50
33988;DHT22;37428;53.580;-1.666;2022-07-23T01:24:07;15.60;79.60
33988;DHT22;37428;53.580;-1.666;2022-07-23T01:27:09;15.60;79.20
33988;DHT22;37428;53.580;-1.666;2022-07-23T01:30:13;15.60;79.10
33988;DHT22;37428;53.580;-1.666;2022-07-23T01:33:15;15.60;78.80
33988;DHT22;37428;53.580;-1.666;2022-07-23T01:36:21;15.60;79.80
33988;DHT22;37428;53.580;-1.666;2022-07-23T01:39:27;15.60;79.50
33988;DHT22;37428;53.580;-1.666;2022-07-23T01:42:35;15.70;79.50
33988;DHT22;37428;53.580;-1.666;2022-07-23T01:45:39;15.70;79.10
33988;DHT22;37428;53.580;-1.666;2022-07-23T01:48:47;15.60;79.10
33988;DHT22;37428;53.580;-1.666;2022-07-23T01:51:56;15.60;79.20
33988;DHT22;37428;53.580;-1.666;2022-07-23T01:55:18;15.60;79.40
33988;DHT22;37428;53.580;-1.666;2022-07-23T01:58:22;15.60;79.70
33988;DHT22;37428;53.580;-1.666;2022-07-23T02:01:26;15.60;79.70
33988;DHT22;37428;53.580;-1.666;2022-07-23T02:04:30;15.60;80.20
33988;DHT22;37428;53.580;-1.666;2022-07-23T02:07:41;15.50;80.40
33988;DHT22;37428;53.580;-1.666;2022-07-23T02:10:45;15.60;80.60
33988;DHT22;37428;53.580;-1.666;2022-07-23T02:13:59;15.60;80.70
33988;DHT22;37428;53.580;-1.666;2022-07-23T02:17:02;15.50;80.80
33988;DHT22;37428;53.580;-1.666;2022-07-23T02:20:26;15.50;81.20
33988;DHT22;37428;53.580;-1.666;2022-07-23T02:23:41;15.50;81.00
33988;DHT22;37428;53.580;-1.666;2022-07-23T02:26:44;15.50;81.20
33988;DHT22;37428;53.580;-1.666;2022-07-23T02:29:47;15.60;81.10
33988;DHT22;37428;53.580;-1.666;2022-07-23T02:32:51;15.60;81.50
33988;DHT22;37428;53.580;-1.666;2022-07-23T02:35:55;15.70;81.30
33988;DHT22;37428;53.580;-1.666;2022-07-23T02:38:57;15.80;81.20
33988;DHT22;37428;53.580;-1.666;2022-07-23T02:42:04;15.80;81.00
33988;DHT22;37428;53.580;-1.666;2022-07-23T02:45:09;15.80;80.70
33988;DHT22;37428;53.580;-1.666;2022-07-23T02:48:11;15.80;80.70
33988;DHT22;37428;53.580;-1.666;2022-07-23T02:51:15;15.80;80.40
33988;DHT22;37428;53.580;-1.666;2022-07-23T02:54:18;15.80;80.10
33988;DHT22;37428;53.580;-1.666;2022-07-23T02:57:22;15.80;79.70
33988;DHT22;37428;53.580;-1.666;2022-07-23T03:00:27;15.70;79.70
33988;DHT22;37428;53.580;-1.666;2022-07-23T03:03:30;15.70;79.60
33988;DHT22;37428;53.580;-1.666;2022-07-23T03:06:36;15.50;80.10
33988;DHT22;37428;53.580;-1.666;2022-07-23T03:09:38;15.40;80.00
33988;DHT22;37428;53.580;-1.666;2022-07-23T03:12:42;15.40;80.20
33988;DHT22;37428;53.580;-1.666;2022-07-23T03:15:44;15.50;79.90
33988;DHT22;37428;53.580;-1.666;2022-07-23T03:18:46;15.40;80.10
33988;DHT22;37428;53.580;-1.666;2022-07-23T03:21:50;15.50;80.30
33988;DHT22;37428;53.580;-1.666;2022-07-23T03:24:54;15.40;79.90
33988;DHT22;37428;53.580;-1.666;2022-07-23T03:28:03;15.40;79.10
33988;DHT22;37428;53.580;-1.666;2022-07-23T03:31:10;15.40;80.10
33988;DHT22;37428;53.580;-1.666;2022-07-23T03:34:14;15.40;79.50
33988;DHT22;37428;53.580;-1.666;2022-07-23T03:37:23;15.40;79.20
33988;DHT22;37428;53.580;-1.666;2022-07-23T03:40:27;15.30;79.20
33988;DHT22;37428;53.580;-1.666;2022-07-23T03:43:33;15.30;79.20
33988;DHT22;37428;53.580;-1.666;2022-07-23T03:46:50;15.20;80.10
33988;DHT22;37428;53.580;-1.666;2022-07-23T03:49:56;15.20;79.90
33988;DHT22;37428;53.580;-1.666;2022-07-23T03:52:59;15.10;80.00
33988;DHT22;37428;53.580;-1.666;2022-07-23T03:56:09;15.10;80.40
33988;DHT22;37428;53.580;-1.666;2022-07-23T03:59:13;14.90;80.20
33988;DHT22;37428;53.580;-1.666;2022-07-23T04:02:15;14.80;81.10
33988;DHT22;37428;53.580;-1.666;2022-07-23T04:05:21;14.90;80.60
33988;DHT22;37428;53.580;-1.666;2022-07-23T04:08:30;14.80;81.80
33988;DHT22;37428;53.580;-1.666;2022-07-23T04:11:34;14.80;81.50
33988;DHT22;37428;53.580;-1.666;2022-07-23T04:14:37;14.80;81.30
33988;DHT22;37428;53.580;-1.666;2022-07-23T04:17:42;14.80;81.10
33988;DHT22;37428;53.580;-1.666;2022-07-23T04:20:46;14.80;80.80
33988;DHT22;37428;53.580;-1.666;2022-07-23T04:24:03;14.90;80.50
33988;DHT22;37428;53.580;-1.666;2022-07-23T04:27:09;14.90;80.50
33988;DHT22;37428;53.580;-1.666;2022-07-23T04:30:23;14.80;81.00
33988;DHT22;37428;53.580;-1.666;2022-07-23T04:33:29;14.80;81.50
33988;DHT22;37428;53.580;-1.666;2022-07-23T04:36:43;14.80;80.80
33988;DHT22;37428;53.580;-1.666;2022-07-23T04:39:47;14.90;81.10
33988;DHT22;37428;53.580;-1.666;2022-07-23T04:42:55;14.80;80.50
33988;DHT22;37428;53.580;-1.666;2022-07-23T04:46:02;14.90;81.30
33988;DHT22;37428;53.580;-1.666;2022-07-23T04:49:04;14.90;81.70
33988;DHT22;37428;53.580;-1.666;2022-07-23T04:52:06;14.90;81.80
33988;DHT22;37428;53.580;-1.666;2022-07-23T04:55:10;14.90;81.70
33988;DHT22;37428;53.580;-1.666;2022-07-23T04:58:15;15.00;82.00
33988;DHT22;37428;53.580;-1.666;2022-07-23T05:01:21;15.00;82.20
33988;DHT22;37428;53.580;-1.666;2022-07-23T05:04:26;15.00;82.30
33988;DHT22;37428;53.580;-1.666;2022-07-23T05:07:28;15.10;82.20
33988;DHT22;37428;53.580;-1.666;2022-07-23T05:10:32;15.10;82.00
33988;DHT22;37428;53.580;-1.666;2022-07-23T05:13:35;15.10;82.30
33988;DHT22;37428;53.580;-1.666;2022-07-23T05:16:40;15.10;82.30
33988;DHT22;37428;53.580;-1.666;2022-07-23T05:19:42;15.20;82.70
33988;DHT22;37428;53.580;-1.666;2022-07-23T05:22:47;15.20;83.20
33988;DHT22;37428;53.580;-1.666;2022-07-23T05:25:49;15.30;83.30
33988;DHT22;37428;53.580;-1.666;2022-07-23T05:28:57;15.30;83.30
33988;DHT22;37428;53.580;-1.666;2022-07-23T05:32:04;15.30;83.00
33988;DHT22;37428;53.580;-1.666;2022-07-23T05:35:12;15.40;82.90
33988;DHT22;37428;53.580;-1.666;2022-07-23T05:38:16;15.50;82.60
33988;DHT22;37428;53.580;-1.666;2022-07-23T05:41:21;15.50;82.50
33988;DHT22;37428;53.580;-1.666;2022-07-23T05:44:23;15.50;81.10
33988;DHT22;37428;53.580;-1.666;2022-07-23T05:51:08;15.70;81.00
33988;DHT22;37428;53.580;-1.666;2022-07-23T05:54:20;15.80;80.10
33988;DHT22;37428;53.580;-1.666;2022-07-23T05:57:27;15.90;79.90
33988;DHT22;37428;53.580;-1.666;2022-07-23T06:00:32;16.00;79.30
33988;DHT22;37428;53.580;-1.666;2022-07-23T06:03:36;16.20;77.80
33988;DHT22;37428;53.580;-1.666;2022-07-23T06:06:39;16.30;76.90
33988;DHT22;37428;53.580;-1.666;2022-07-23T06:09:59;16.20;77.80
33988;DHT22;37428;53.580;-1.666;2022-07-23T06:13:04;16.20;78.50
33988;DHT22;37428;53.580;-1.666;2022-07-23T06:16:06;16.10;78.20
33988;DHT22;37428;53.580;-1.666;2022-07-23T06:19:09;16.20;79.00
33988;DHT22;37428;53.580;-1.666;2022-07-23T06:22:21;16.30;78.10
33988;DHT22;37428;53.580;-1.666;2022-07-23T06:25:23;16.40;76.00
33988;DHT22;37428;53.580;-1.666;2022-07-23T06:28:26;16.50;75.30
33988;DHT22;37428;53.580;-1.666;2022-07-23T06:31:36;16.70;74.90
33988;DHT22;37428;53.580;-1.666;2022-07-23T06:34:48;16.80;73.50
33988;DHT22;37428;53.580;-1.666;2022-07-23T06:37:56;16.90;73.50
33988;DHT22;37428;53.580;-1.666;2022-07-23T06:41:00;16.90;71.40
33988;DHT22;37428;53.580;-1.666;2022-07-23T06:44:02;17.00;70.60
33988;DHT22;37428;53.580;-1.666;2022-07-23T06:47:15;17.10;72.00
33988;DHT22;37428;53.580;-1.666;2022-07-23T06:50:25;17.10;70.50
33988;DHT22;37428;53.580;-1.666;2022-07-23T06:53:30;17.10;67.90
33988;DHT22;37428;53.580;-1.666;2022-07-23T06:56:34;17.10;70.00
33988;DHT22;37428;53.580;-1.666;2022-07-23T06:59:37;17.10;71.10
33988;DHT22;37428;53.580;-1.666;2022-07-23T07:02:41;17.10;71.60
33988;DHT22;37428;53.580;-1.666;2022-07-23T07:05:50;17.10;71.70
33988;DHT22;37428;53.580;-1.666;2022-07-23T07:08:55;17.10;72.60
33988;DHT22;37428;53.580;-1.666;2022-07-23T07:11:59;17.20;73.40
33988;DHT22;37428;53.580;-1.666;2022-07-23T07:15:02;17.20;73.20
33988;DHT22;37428;53.580;-1.666;2022-07-23T07:18:10;17.20;73.00
33988;DHT22;37428;53.580;-1.666;2022-07-23T07:21:13;17.20;73.10
33988;DHT22;37428;53.580;-1.666;2022-07-23T07:24:17;17.30;72.70
33988;DHT22;37428;53.580;-1.666;2022-07-23T07:27:26;17.30;73.10
33988;DHT22;37428;53.580;-1.666;2022-07-23T07:30:43;17.40;72.90
33988;DHT22;37428;53.580;-1.666;2022-07-23T07:33:45;17.50;71.00
33988;DHT22;37428;53.580;-1.666;2022-07-23T07:36:49;17.50;70.40
33988;DHT22;37428;53.580;-1.666;2022-07-23T07:39:59;17.50;70.10
33988;DHT22;37428;53.580;-1.666;2022-07-23T07:43:11;17.40;69.10
33988;DHT22;37428;53.580;-1.666;2022-07-23T07:46:25;17.40;69.40
33988;DHT22;37428;53.580;-1.666;2022-07-23T07:49:29;17.40;69.90
33988;DHT22;37428;53.580;-1.666;2022-07-23T07:52:33;17.50;70.10
33988;DHT22;37428;53.580;-1.666;2022-07-23T07:55:45;17.50;70.90
33988;DHT22;37428;53.580;-1.666;2022-07-23T07:58:47;17.60;70.60
33988;DHT22;37428;53.580;-1.666;2022-07-23T08:01:53;17.70;71.10
33988;DHT22;37428;53.580;-1.666;2022-07-23T08:04:57;17.80;70.20
33988;DHT22;37428;53.580;-1.666;2022-07-23T08:07:59;17.80;69.60
33988;DHT22;37428;53.580;-1.666;2022-07-23T08:11:03;17.90;68.60
33988;DHT22;37428;53.580;-1.666;2022-07-23T08:14:05;18.00;68.00
33988;DHT22;37428;53.580;-1.666;2022-07-23T08:17:09;18.10;67.70
33988;DHT22;37428;53.580;-1.666;2022-07-23T08:20:19;18.20;66.80
33988;DHT22;37428;53.580;-1.666;2022-07-23T08:23:22;18.20;66.00
33988;DHT22;37428;53.580;-1.666;2022-07-23T08:26:32;18.40;65.50
33988;DHT22;37428;53.580;-1.666;2022-07-23T08:30:07;18.30;65.20
33988;DHT22;37428;53.580;-1.666;2022-07-23T08:33:01;18.40;65.50
33988;DHT22;37428;53.580;-1.666;2022-07-23T08:36:20;18.50;66.20
33988;DHT22;37428;53.580;-1.666;2022-07-23T08:39:36;18.40;65.90
33988;DHT22;37428;53.580;-1.666;2022-07-23T08:42:50;18.50;65.20
33988;DHT22;37428;53.580;-1.666;2022-07-23T08:45:58;18.70;64.10
33988;DHT22;37428;53.580;-1.666;2022-07-23T08:49:03;18.80;64.30
33988;DHT22;37428;53.580;-1.666;2022-07-23T08:52:07;19.00;64.70
33988;DHT22;37428;53.580;-1.666;2022-07-23T08:55:18;19.20;65.00
33988;DHT22;37428;53.580;-1.666;2022-07-23T08:58:22;19.20;64.00
33988;DHT22;37428;53.580;-1.666;2022-07-23T09:01:40;19.30;64.90
33988;DHT22;37428;53.580;-1.666;2022-07-23T09:04:57;19.40;64.60
33988;DHT22;37428;53.580;-1.666;2022-07-23T09:08:10;19.50;65.60
33988;DHT22;37428;53.580;-1.666;2022-07-23T09:11:17;19.50;65.00
33988;DHT22;37428;53.580;-1.666;2022-07-23T09:14:36;19.60;65.20
33988;DHT22;37428;53.580;-1.666;2022-07-23T09:17:45;19.50;63.50
33988;DHT22;37428;53.580;-1.666;2022-07-23T09:21:09;19.40;64.90
33988;DHT22;37428;53.580;-1.666;2022-07-23T09:24:27;19.30;64.70
33988;DHT22;37428;53.580;-1.666;2022-07-23T09:27:52;19.20;64.40
33988;DHT22;37428;53.580;-1.666;2022-07-23T09:31:07;19.20;65.20
33988;DHT22;37428;53.580;-1.666;2022-07-23T09:34:11;19.10;64.80
33988;DHT22;37428;53.580;-1.666;2022-07-23T09:37:14;19.00;65.50
33988;DHT22;37428;53.580;-1.666;2022-07-23T09:40:17;19.00;66.00
33988;DHT22;37428;53.580;-1.666;2022-07-23T09:43:33;19.00;66.30
33988;DHT22;37428;53.580;-1.666;2022-07-23T09:46:39;19.10;66.20
33988;DHT22;37428;53.580;-1.666;2022-07-23T09:49:57;19.20;65.60
33988;DHT22;37428;53.580;-1.666;2022-07-23T09:53:24;19.30;66.30
33988;DHT22;37428;53.580;-1.666;2022-07-23T09:57:27;19.40;65.90
33988;DHT22;37428;53.580;-1.666;2022-07-23T10:00:31;19.40;66.70
33988;DHT22;37428;53.580;-1.666;2022-07-23T10:03:42;19.60;66.00
33988;DHT22;37428;53.580;-1.666;2022-07-23T10:06:45;19.70;65.70
33988;DHT22;37428;53.580;-1.666;2022-07-23T10:09:47;19.80;65.10
33988;DHT22;37428;53.580;-1.666;2022-07-23T10:12:51;19.90;64.60
33988;DHT22;37428;53.580;-1.666;2022-07-23T10:16:18;20.00;64.10
33988;DHT22;37428;53.580;-1.666;2022-07-23T10:19:46;20.20;63.90
33988;DHT22;37428;53.580;-1.666;2022-07-23T10:26:44;20.20;60.60
33988;DHT22;37428;53.580;-1.666;2022-07-23T10:29:59;20.40;60.80
33988;DHT22;37428;53.580;-1.666;2022-07-23T10:33:15;20.40;60.10
33988;DHT22;37428;53.580;-1.666;2022-07-23T10:36:29;20.50;59.40
33988;DHT22;37428;53.580;-1.666;2022-07-23T10:39:46;20.50;59.90
33988;DHT22;37428;53.580;-1.666;2022-07-23T10:43:13;20.50;60.20
33988;DHT22;37428;53.580;-1.666;2022-07-23T10:46:30;20.60;58.40
33988;DHT22;37428;53.580;-1.666;2022-07-23T10:49:42;20.50;57.60
33988;DHT22;37428;53.580;-1.666;2022-07-23T10:57:26;20.40;58.60
33988;DHT22;37428;53.580;-1.666;2022-07-23T11:00:31;20.40;56.70
33988;DHT22;37428;53.580;-1.666;2022-07-23T11:03:34;20.40;54.80
33988;DHT22;37428;53.580;-1.666;2022-07-23T11:07:12;20.40;53.60
33988;DHT22;37428;53.580;-1.666;2022-07-23T11:10:32;20.50;55.00
33988;DHT22;37428;53.580;-1.666;2022-07-23T11:13:49;20.50;55.30
33988;DHT22;37428;53.580;-1.666;2022-07-23T11:17:58;20.60;55.00
33988;DHT22;37428;53.580;-1.666;2022-07-23T11:20:40;20.60;54.90
33988;DHT22;37428;53.580;-1.666;2022-07-23T11:23:57;20.60;55.90
33988;DHT22;37428;53.580;-1.666;2022-07-23T11:27:01;20.60;55.20
33988;DHT22;37428;53.580;-1.666;2022-07-23T11:30:38;20.60;56.00
33988;DHT22;37428;53.580;-1.666;2022-07-23T11:33:40;20.70;54.20
33988;DHT22;37428;53.580;-1.666;2022-07-23T11:36:56;20.60;52.10
33988;DHT22;37428;53.580;-1.666;2022-07-23T11:40:26;20.60;53.60
33988;DHT22;37428;53.580;-1.666;2022-07-23T11:43:50;20.50;52.60
33988;DHT22;37428;53.580;-1.666;2022-07-23T11:47:11;20.50;52.80
33988;DHT22;37428;53.580;-1.666;2022-07-23T11:50:14;20.40;53.00
33988;DHT22;37428;53.580;-1.666;2022-07-23T11:53:22;20.40;53.00
33988;DHT22;37428;53.580;-1.666;2022-07-23T11:56:48;20.40;53.40
33988;DHT22;37428;53.580;-1.666;2022-07-23T11:59:58;20.30;53.50
33988;DHT22;37428;53.580;-1.666;2022-07-23T12:03:12;20.30;54.80
33988;DHT22;37428;53.580;-1.666;2022-07-23T12:10:05;20.30;55.10
33988;DHT22;37428;53.580;-1.666;2022-07-23T12:13:38;20.30;55.90
33988;DHT22;37428;53.580;-1.666;2022-07-23T12:16:40;20.20;56.90
33988;DHT22;37428;53.580;-1.666;2022-07-23T12:19:58;20.10;57.60
33988;DHT22;37428;53.580;-1.666;2022-07-23T12:23:04;20.00;58.20
33988;DHT22;37428;53.580;-1.666;2022-07-23T12:26:06;20.00;59.10
33988;DHT22;37428;53.580;-1.666;2022-07-23T12:29:12;19.90;59.50
33988;DHT22;37428;53.580;-1.666;2022-07-23T12:32:21;19.90;60.00
33988;DHT22;37428;53.580;-1.666;2022-07-23T12:35:32;19.80;60.50
33988;DHT22;37428;53.580;-1.666;2022-07-23T12:38:38;19.80;61.40
33988;DHT22;37428;53.580;-1.666;2022-07-23T12:41:54;19.70;61.90
33988;DHT22;37428;53.580;-1.666;2022-07-23T12:45:27;19.70;62.40
33988;DHT22;37428;53.580;-1.666;2022-07-23T12:48:32;19.60;63.10
33988;DHT22;37428;53.580;-1.666;2022-07-23T12:51:41;19.60;63.20
33988;DHT22;37428;53.580;-1.666;2022-07-23T12:54:44;19.70;63.30
33988;DHT22;37428;53.580;-1.666;2022-07-23T12:58:01;19.70;63.70
33988;DHT22;37428;53.580;-1.666;2022-07-23T13:01:33;19.60;64.10
33988;DHT22;37428;53.580;-1.666;2022-07-23T13:04:35;19.70;64.60
33988;DHT22;37428;53.580;-1.666;2022-07-23T13:07:38;19.80;64.80
33988;DHT22;37428;53.580;-1.666;2022-07-23T13:10:42;19.80;65.10
33988;DHT22;37428;53.580;-1.666;2022-07-23T13:14:03;19.90;65.20
33988;DHT22;37428;53.580;-1.666;2022-07-23T13:17:26;19.70;65.70
33988;DHT22;37428;53.580;-1.666;2022-07-23T13:20:32;19.70;66.20
33988;DHT22;37428;53.580;-1.666;2022-07-23T13:23:44;19.80;66.30
33988;DHT22;37428;53.580;-1.666;2022-07-23T13:27:05;19.90;66.20
33988;DHT22;37428;53.580;-1.666;2022-07-23T13:30:48;20.00;66.30
33988;DHT22;37428;53.580;-1.666;2022-07-23T13:33:34;20.20;65.90
33988;DHT22;37428;53.580;-1.666;2022-07-23T13:36:57;20.30;65.00
33988;DHT22;37428;53.580;-1.666;2022-07-23T13:40:12;20.70;64.20
33988;DHT22;37428;53.580;-1.666;2022-07-23T13:43:21;21.10;63.40
33988;DHT22;37428;53.580;-1.666;2022-07-23T13:46:45;21.20;61.90
33988;DHT22;37428;53.580;-1.666;2022-07-23T13:49:54;21.10;61.80
33988;DHT22;37428;53.580;-1.666;2022-07-23T13:52:57;21.00;62.00
33988;DHT22;37428;53.580;-1.666;2022-07-23T13:56:03;21.00;62.30
33988;DHT22;37428;53.580;-1.666;2022-07-23T13:59:06;20.90;62.80
33988;DHT22;37428;53.580;-1.666;2022-07-23T14:02:08;20.90;62.80
33988;DHT22;37428;53.580;-1.666;2022-07-23T14:05:30;20.90;62.70
33988;DHT22;37428;53.580;-1.666;2022-07-23T14:08:33;20.80;62.00
33988;DHT22;37428;53.580;-1.666;2022-07-23T14:11:44;20.70;62.50
33988;DHT22;37428;53.580;-1.666;2022-07-23T14:14:48;20.70;62.60
33988;DHT22;37428;53.580;-1.666;2022-07-23T14:17:59;20.60;63.00
33988;DHT22;37428;53.580;-1.666;2022-07-23T14:21:13;20.70;63.00
33988;DHT22;37428;53.580;-1.666;2022-07-23T14:24:17;20.70;63.00
33988;DHT22;37428;53.580;-1.666;2022-07-23T14:30:53;20.60;63.30
33988;DHT22;37428;53.580;-1.666;2022-07-23T14:33:55;20.50;64.60
33988;DHT22;37428;53.580;-1.666;2022-07-23T14:37:01;20.50;65.40
33988;DHT22;37428;53.580;-1.666;2022-07-23T14:40:22;20.60;65.00
33988;DHT22;37428;53.580;-1.666;2022-07-23T14:43:44;20.40;64.80
33988;DHT22;37428;53.580;-1.666;2022-07-23T14:46:48;20.40;65.10
33988;DHT22;37428;53.580;-1.666;2022-07-23T14:49:50;20.40;65.20
33988;DHT22;37428;53.580;-1.666;2022-07-23T14:52:55;20.50;65.40
33988;DHT22;37428;53.580;-1.666;2022-07-23T14:56:05;20.50;65.40
33988;DHT22;37428;53.580;-1.666;2022-07-23T14:59:19;20.50;64.80
33988;DHT22;37428;53.580;-1.666;2022-07-23T15:02:31;20.70;64.50
33988;DHT22;37428;53.580;-1.666;2022-07-23T15:05:48;20.80;64.50
33988;DHT22;37428;53.580;-1.666;2022-07-23T15:08:58;20.80;64.00
33988;DHT22;37428;53.580;-1.666;2022-07-23T15:12:11;20.90;63.50
33988;DHT22;37428;53.580;-1.666;2022-07-23T15:15:18;20.80;64.10
33988;DHT22;37428;53.580;-1.666;2022-07-23T15:18:22;20.90;64.30
33988;DHT22;37428;53.580;-1.666;2022-07-23T15:21:25;20.90;63.90
33988;DHT22;37428;53.580;-1.666;2022-07-23T15:24:31;20.90;63.70
33988;DHT22;37428;53.580;-1.666;2022-07-23T15:28:06;21.00;63.60
33988;DHT22;37428;53.580;-1.666;2022-07-23T15:31:05;21.20;63.00
33988;DHT22;37428;53.580;-1.666;2022-07-23T15:34:08;21.40;61.80
33988;DHT22;37428;53.580;-1.666;2022-07-23T15:37:23;21.50;61.90
33988;DHT22;37428;53.580;-1.666;2022-07-23T15:40:25;21.40;62.10
33988;DHT22;37428;53.580;-1.666;2022-07-23T15:43:27;21.50;62.30
33988;DHT22;37428;53.580;-1.666;2022-07-23T15:46:40;21.40;62.40
33988;DHT22;37428;53.580;-1.666;2022-07-23T15:49:49;21.40;62.70
33988;DHT22;37428;53.580;-1.666;2022-07-23T15:53:13;21.40;62.60
33988;DHT22;37428;53.580;-1.666;2022-07-23T15:56:30;21.50;62.30
33988;DHT22;37428;53.580;-1.666;2022-07-23T15:59:49;21.40;62.40
33988;DHT22;37428;53.580;-1.666;2022-07-23T16:03:04;21.40;62.50
33988;DHT22;37428;53.580;-1.666;2022-07-23T16:06:08;21.20;62.60
33988;DHT22;37428;53.580;-1.666;2022-07-23T16:09:14;21.10;63.10
33988;DHT22;37428;53.580;-1.666;2022-07-23T16:12:26;21.10;63.20
33988;DHT22;37428;53.580;-1.666;2022-07-23T16:15:30;21.00;63.40
33988;DHT22;37428;53.580;-1.666;2022-07-23T16:18:41;21.10;63.50
33988;DHT22;37428;53.580;-1.666;2022-07-23T16:21:54;21.20;63.30
33988;DHT22;37428;53.580;-1.666;2022-07-23T16:24:58;21.10;63.20
33988;DHT22;37428;53.580;-1.666;2022-07-23T16:28:06;21.10;63.30
33988;DHT22;37428;53.580;-1.666;2022-07-23T16:31:36;21.10;63.20
33988;DHT22;37428;53.580;-1.666;2022-07-23T16:35:05;21.10;63.40
33988;DHT22;37428;53.580;-1.666;2022-07-23T16:38:34;21.20;63.30
33988;DHT22;37428;53.580;-1.666;2022-07-23T16:41:38;21.10;62.90
33988;DHT22;37428;53.580;-1.666;2022-07-23T16:45:06;21.20;63.50
33988;DHT22;37428;53.580;-1.666;2022-07-23T16:48:13;21.20;62.90
33988;DHT22;37428;53.580;-1.666;2022-07-23T16:51:20;21.10;63.40
33988;DHT22;37428;53.580;-1.666;2022-07-23T16:54:38;21.10;63.40
33988;DHT22;37428;53.580;-1.666;2022-07-23T16:57:52;21.10;63.60
33988;DHT22;37428;53.580;-1.666;2022-07-23T17:00:59;21.00;63.50
33988;DHT22;37428;53.580;-1.666;2022-07-23T17:04:08;21.00;63.50
33988;DHT22;37428;53.580;-1.666;2022-07-23T17:07:12;21.10;63.70
33988;DHT22;37428;53.580;-1.666;2022-07-23T17:10:52;21.10;63.60
33988;DHT22;37428;53.580;-1.666;2022-07-23T17:13:56;21.20;63.80
33988;DHT22;37428;53.580;-1.666;2022-07-23T17:17:03;21.30;63.80
33988;DHT22;37428;53.580;-1.666;2022-07-23T17:20:29;21.30;63.30
33988;DHT22;37428;53.580;-1.666;2022-07-23T17:23:43;21.20;63.50
33988;DHT22;37428;53.580;-1.666;2022-07-23T17:26:47;21.20;63.90
33988;DHT22;37428;53.580;-1.666;2022-07-23T17:29:49;21.20;63.70
33988;DHT22;37428;53.580;-1.666;2022-07-23T17:32:54;21.10;63.90
33988;DHT22;37428;53.580;-1.666;2022-07-23T17:35:58;21.10;64.50
33988;DHT22;37428;53.580;-1.666;2022-07-23T17:39:03;21.00;64.90
33988;DHT22;37428;53.580;-1.666;2022-07-23T17:42:06;21.00;64.70
33988;DHT22;37428;53.580;-1.666;2022-07-23T17:45:18;21.00;64.90
33988;DHT22;37428;53.580;-1.666;2022-07-23T17:48:22;20.90;65.00
33988;DHT22;37428;53.580;-1.666;2022-07-23T17:51:31;21.00;65.00
33988;DHT22;37428;53.580;-1.666;2022-07-23T17:54:34;21.00;65.10
33988;DHT22;37428;53.580;-1.666;2022-07-23T17:57:38;20.90;65.20
33988;DHT22;37428;53.580;-1.666;2022-07-23T18:00:44;20.80;65.60
33988;DHT22;37428;53.580;-1.666;2022-07-23T18:04:04;20.90;65.50
33988;DHT22;37428;53.580;-1.666;2022-07-23T18:14:20;20.70;66.10
33988;DHT22;37428;53.580;-1.666;2022-07-23T18:17:32;20.70;66.10
33988;DHT22;37428;53.580;-1.666;2022-07-23T18:20:53;20.70;66.40
33988;DHT22;37428;53.580;-1.666;2022-07-23T18:24:05;20.60;66.30
33988;DHT22;37428;53.580;-1.666;2022-07-23T18:27:19;20.60;66.60
33988;DHT22;37428;53.580;-1.666;2022-07-23T18:34:36;20.70;66.50
33988;DHT22;37428;53.580;-1.666;2022-07-23T18:38:02;20.60;66.60
33988;DHT22;37428;53.580;-1.666;2022-07-23T18:41:22;20.60;66.90
33988;DHT22;37428;53.580;-1.666;2022-07-23T18:44:33;20.70;66.90
33988;DHT22;37428;53.580;-1.666;2022-07-23T18:47:57;20.50;67.60
33988;DHT22;37428;53.580;-1.666;2022-07-23T18:51:00;20.50;67.70
33988;DHT22;37428;53.580;-1.666;2022-07-23T18:54:20;20.50;68.30
33988;DHT22;37428;53.580;-1.666;2022-07-23T18:57:54;20.40;69.00
33988;DHT22;37428;53.580;-1.666;2022-07-23T19:05:09;20.30;70.00
33988;DHT22;37428;53.580;-1.666;2022-07-23T19:08:35;20.20;70.70
33988;DHT22;37428;53.580;-1.666;2022-07-23T19:11:56;20.30;70.70
33988;DHT22;37428;53.580;-1.666;2022-07-23T19:15:08;20.30;71.00
33988;DHT22;37428;53.580;-1.666;2022-07-23T19:18:18;20.30;70.70
33988;DHT22;37428;53.580;-1.666;2022-07-23T19:21:32;20.30;71.30
33988;DHT22;37428;53.580;-1.666;2022-07-23T19:24:34;20.30;70.90
33988;DHT22;37428;53.580;-1.666;2022-07-23T19:27:40;20.20;71.00
33988;DHT22;37428;53.580;-1.666;2022-07-23T19:31:04;20.10;71.60
33988;DHT22;37428;53.580;-1.666;2022-07-23T19:34:55;19.90;72.50
33988;DHT22;37428;53.580;-1.666;2022-07-23T19:37:55;19.90;72.50
33988;DHT22;37428;53.580;-1.666;2022-07-23T19:41:01;19.90;72.90
33988;DHT22;37428;53.580;-1.666;2022-07-23T19:44:40;19.90;73.10
33988;DHT22;37428;53.580;-1.666;2022-07-23T19:48:17;19.90;73.30
33988;DHT22;37428;53.580;-1.666;2022-07-23T19:55:00;19.90;73.90
33988;DHT22;37428;53.580;-1.666;2022-07-23T19:58:02;19.90;74.60
33988;DHT22;37428;53.580;-1.666;2022-07-23T20:01:05;19.80;75.00
33988;DHT22;37428;53.580;-1.666;2022-07-23T20:04:07;19.90;74.60
33988;DHT22;37428;53.580;-1.666;2022-07-23T20:07:27;19.80;74.80
33988;DHT22;37428;53.580;-1.666;2022-07-23T20:10:32;19.70;75.30
33988;DHT22;37428;53.580;-1.666;2022-07-23T20:13:35;19.70;75.40
33988;DHT22;37428;53.580;-1.666;2022-07-23T20:18:15;19.60;75.70